Time,TemperatureF,DewpointF,PressureIn,WindDirection,WindDirectionDegrees,WindSpeedMPH,WindSpeedGustMPH,Humidity,HourlyPrecipIn,Conditions,Clouds,dailyrainin,SoftwareType,DateUTC
2013-03-17 00:00:00,63.5,38.8,29.79,West,270,3.8,3.8,40,0.00,,CLR,0.00,VWS V14.01,2013-03-17 04:00:00,
2013-03-17 00:01:00,64.0,39.2,29.79,WSW,248,5.4,5.4,40,0.00,,CLR,0.00,VWS V14.01,2013-03-17 04:01:00,
2013-03-17 00:02:00,64.0,39.2,29.76,WSW,248,3.8,3.8,40,0.00,,CLR,0.00,VWS V14.01,2013-03-17 04:02:00,
2013-03-17 00:03:00,63.9,39.1,29.76,WSW,248,3.8,3.8,40,0.00,,CLR,0.00,VWS V14.01,2013-03-17 04:03:00,
2013-03-17 00:04:00,63.1,38.5,29.76,WSW,248,3.4,3.4,40,0.00,,CLR,0.00,VWS V14.01,2013-03-17 04:04:00,
2013-03-17 00:06:00,63.1,38.5,29.76,WSW,248,3.8,3.8,40,0.00,,CLR,0.00,VWS V14.01,2013-03-17 04:06:00,
2013-03-17 00:07:00,63.5,38.8,29.76,WSW,248,4.9,4.9,40,0.00,,CLR,0.00,VWS V14.01,2013-03-17 04:07:00,
2013-03-17 00:09:00,64.2,39.4,29.76,WSW,248,3.8,3.8,40,0.00,,CLR,0.00,VWS V14.01,2013-03-17 04:09:00,
2013-03-17 00:10:00,65.7,40.0,29.79,SW,225,4.5,4.5,39,0.00,,CLR,0.00,VWS V14.01,2013-03-17 04:10:00,
2013-03-17 00:15:00,65.1,39.6,29.79,SW,225,3.6,3.6,39,0.00,,CLR,0.00,VWS V14.01,2013-03-17 04:15:00,
2013-03-17 00:20:00,65.7,40.0,29.79,WSW,248,4.9,4.9,39,0.00,,CLR,0.00,VWS V14.01,2013-03-17 04:20:00,
2013-03-17 00:26:00,65.8,40.2,29.79,WSW,248,2.5,2.5,39,0.00,,CLR,0.00,VWS V14.01,2013-03-17 04:26:00,
2013-03-17 00:31:00,65.5,39.9,29.79,WSW,248,3.6,3.6,39,0.00,,CLR,0.00,VWS V14.01,2013-03-17 04:31:00,
2013-03-17 00:36:00,64.2,39.4,29.79,WSW,248,4.0,4.0,40,0.00,,CLR,0.00,VWS V14.01,2013-03-17 04:36:00,
2013-03-17 00:41:00,64.0,39.2,29.79,West,270,3.8,3.8,40,0.00,,CLR,0.00,VWS V14.01,2013-03-17 04:41:00,
2013-03-17 00:46:00,64.9,39.4,29.79,West,270,6.5,6.5,39,0.00,,CLR,0.00,VWS V14.01,2013-03-17 04:46:00,
2013-03-17 00:51:00,64.2,39.4,29.79,West,270,3.8,3.8,40,0.00,,CLR,0.00,VWS V14.01,2013-03-17 04:51:00,
2013-03-17 00:56:00,64.9,39.4,29.79,WSW,248,3.8,3.8,39,0.00,,CLR,0.00,VWS V14.01,2013-03-17 04:56:00,
2013-03-17 01:01:00,63.9,39.1,29.79,WSW,248,3.8,3.8,40,0.00,,CLR,0.00,VWS V14.01,2013-03-17 05:01:00,
2013-03-17 01:06:00,63.9,39.1,29.76,WSW,248,3.8,3.8,40,0.00,,CLR,0.00,VWS V14.01,2013-03-17 05:06:00,
2013-03-17 01:11:00,64.2,39.4,29.76,SW,225,6.0,6.0,40,0.00,,CLR,0.00,VWS V14.01,2013-03-17 05:11:00,
2013-03-17 01:16:00,63.9,39.1,29.76,WSW,248,5.6,5.6,40,0.00,,CLR,0.00,VWS V14.01,2013-03-17 05:16:00,
2013-03-17 01:21:00,64.0,39.2,29.79,WSW,248,7.6,7.6,40,0.00,,CLR,0.00,VWS V14.01,2013-03-17 05:21:00,
2013-03-17 01:26:00,64.4,38.9,29.79,WSW,248,7.6,7.6,39,0.00,,CLR,0.00,VWS V14.01,2013-03-17 05:26:00,
2013-03-17 01:31:00,63.9,39.1,29.79,SW,225,4.3,4.3,40,0.00,,CLR,0.00,VWS V14.01,2013-03-17 05:31:00,
2013-03-17 01:36:00,63.1,38.5,29.79,West,270,4.9,4.9,40,0.00,,CLR,0.00,VWS V14.01,2013-03-17 05:36:00,
2013-03-17 01:41:00,63.9,39.1,29.79,WSW,248,5.4,5.4,40,0.00,,CLR,0.00,VWS V14.01,2013-03-17 05:41:00,
2013-03-17 01:47:00,64.0,39.2,29.79,West,270,4.0,4.0,40,0.00,,CLR,0.00,VWS V14.01,2013-03-17 05:47:00,
2013-03-17 01:52:00,63.5,38.8,29.79,WSW,248,6.0,6.0,40,0.00,,CLR,0.00,VWS V14.01,2013-03-17 05:52:00,
2013-03-17 01:57:00,63.7,38.9,29.79,WSW,248,4.7,4.7,40,0.00,,CLR,0.00,VWS V14.01,2013-03-17 05:57:00,
2013-03-17 02:02:00,63.0,38.3,29.79,WSW,248,6.0,6.0,40,0.00,,CLR,0.00,VWS V14.01,2013-03-17 06:02:00,
2013-03-17 02:07:00,63.1,38.5,29.79,SW,225,3.8,3.8,40,0.00,,CLR,0.00,VWS V14.01,2013-03-17 06:07:00,
2013-03-17 02:12:00,62.6,38.0,29.79,WSW,248,3.4,3.4,40,0.00,,CLR,0.00,VWS V14.01,2013-03-17 06:12:00,
2013-03-17 02:17:00,62.8,38.1,29.79,WSW,248,4.0,4.0,40,0.00,,CLR,0.00,VWS V14.01,2013-03-17 06:17:00,
2013-03-17 02:22:00,63.0,38.3,29.82,West,270,4.0,4.0,40,0.00,,CLR,0.00,VWS V14.01,2013-03-17 06:22:00,
2013-03-17 02:27:00,62.8,38.1,29.82,WSW,248,3.8,3.8,40,0.00,,CLR,0.00,VWS V14.01,2013-03-17 06:27:00,
2013-03-17 02:32:00,62.6,38.0,29.82,West,270,3.8,3.8,40,0.00,,CLR,0.00,VWS V14.01,2013-03-17 06:32:00,
2013-03-17 02:37:00,62.4,37.8,29.82,WSW,248,6.5,6.5,40,0.00,,CLR,0.00,VWS V14.01,2013-03-17 06:37:00,
2013-03-17 02:42:00,62.4,37.8,29.82,West,270,5.4,5.4,40,0.00,,CLR,0.00,VWS V14.01,2013-03-17 06:42:00,
2013-03-17 02:47:00,62.2,37.6,29.82,West,270,3.8,3.8,40,0.00,,CLR,0.00,VWS V14.01,2013-03-17 06:47:00,
2013-03-17 02:52:00,62.2,37.6,29.82,WSW,248,4.0,4.0,40,0.00,,CLR,0.00,VWS V14.01,2013-03-17 06:52:00,
2013-03-17 02:57:00,62.4,37.8,29.82,West,270,4.7,4.7,40,0.00,,CLR,0.00,VWS V14.01,2013-03-17 06:57:00,
2013-03-17 03:02:00,62.1,37.5,29.82,SW,225,5.4,5.4,40,0.00,,CLR,0.00,VWS V14.01,2013-03-17 07:02:00,
2013-03-17 03:07:00,62.2,37.6,29.82,WSW,248,5.4,5.4,40,0.00,,CLR,0.00,VWS V14.01,2013-03-17 07:07:00,
2013-03-17 03:12:00,61.7,37.2,29.82,SW,225,4.3,4.3,40,0.00,,CLR,0.00,VWS V14.01,2013-03-17 07:12:00,
2013-03-17 03:17:00,61.5,37.0,29.82,WSW,248,4.0,4.0,40,0.00,,CLR,0.00,VWS V14.01,2013-03-17 07:17:00,
2013-03-17 03:23:00,61.3,36.8,29.82,West,270,4.9,4.9,40,0.00,,CLR,0.00,VWS V14.01,2013-03-17 07:23:00,
2013-03-17 03:28:00,61.2,36.7,29.82,WNW,292,3.1,3.1,40,0.00,,CLR,0.00,VWS V14.01,2013-03-17 07:28:00,
2013-03-17 03:33:00,61.2,36.7,29.82,WSW,248,3.1,3.1,40,0.00,,CLR,0.00,VWS V14.01,2013-03-17 07:33:00,
2013-03-17 03:38:00,60.8,36.3,29.79,WSW,248,4.5,4.5,40,0.00,,CLR,0.00,VWS V14.01,2013-03-17 07:38:00,
2013-03-17 03:43:00,61.0,36.5,29.79,WSW,248,4.0,4.0,40,0.00,,CLR,0.00,VWS V14.01,2013-03-17 07:43:00,
2013-03-17 03:48:00,60.8,36.3,29.79,West,270,3.4,3.4,40,0.00,,CLR,0.00,VWS V14.01,2013-03-17 07:48:00,
2013-03-17 03:53:00,60.6,36.8,29.82,West,270,4.3,4.3,41,0.00,,CLR,0.00,VWS V14.01,2013-03-17 07:53:00,
2013-03-17 03:58:00,61.2,36.7,29.82,WSW,248,3.6,3.6,40,0.00,,CLR,0.00,VWS V14.01,2013-03-17 07:58:00,
2013-03-17 04:03:00,59.9,36.2,29.82,WNW,292,3.6,3.6,41,0.00,,CLR,0.00,VWS V14.01,2013-03-17 08:03:00,
2013-03-17 04:08:00,60.4,36.7,29.82,WSW,248,3.1,3.1,41,0.00,,CLR,0.00,VWS V14.01,2013-03-17 08:08:00,
2013-03-17 04:13:00,59.4,35.7,29.82,West,270,3.8,3.8,41,0.00,,CLR,0.00,VWS V14.01,2013-03-17 08:13:00,
2013-03-17 04:18:00,59.4,35.7,29.82,West,270,4.3,4.3,41,0.00,,CLR,0.00,VWS V14.01,2013-03-17 08:18:00,
2013-03-17 04:23:00,59.0,35.3,29.82,WSW,248,4.3,4.3,41,0.00,,CLR,0.00,VWS V14.01,2013-03-17 08:23:00,
2013-03-17 04:28:00,59.0,35.3,29.82,WSW,248,3.1,3.1,41,0.00,,CLR,0.00,VWS V14.01,2013-03-17 08:28:00,
2013-03-17 04:33:00,59.7,36.0,29.82,West,270,3.8,3.8,41,0.00,,CLR,0.00,VWS V14.01,2013-03-17 08:33:00,
2013-03-17 04:38:00,58.6,35.0,29.79,WSW,248,2.7,2.7,41,0.00,,CLR,0.00,VWS V14.01,2013-03-17 08:38:00,
2013-03-17 04:44:00,58.3,34.7,29.79,SW,225,3.4,3.4,41,0.00,,CLR,0.00,VWS V14.01,2013-03-17 08:44:00,
2013-03-17 04:49:00,58.3,34.7,29.79,West,270,2.9,2.9,41,0.00,,CLR,0.00,VWS V14.01,2013-03-17 08:49:00,
2013-03-17 04:54:00,58.5,34.9,29.79,West,270,3.8,3.8,41,0.00,,CLR,0.00,VWS V14.01,2013-03-17 08:54:00,
2013-03-17 04:59:00,59.0,35.3,29.79,WSW,248,3.6,3.6,41,0.00,,CLR,0.00,VWS V14.01,2013-03-17 08:59:00,
2013-03-17 05:04:00,58.8,35.2,29.82,WSW,248,4.0,4.0,41,0.00,,CLR,0.00,VWS V14.01,2013-03-17 09:04:00,
2013-03-17 05:09:00,58.6,35.0,29.82,WSW,248,3.4,3.4,41,0.00,,CLR,0.00,VWS V14.01,2013-03-17 09:09:00,
2013-03-17 05:14:00,58.8,35.2,29.82,SW,225,5.6,5.6,41,0.00,,CLR,0.00,VWS V14.01,2013-03-17 09:14:00,
2013-03-17 05:19:00,58.5,34.9,29.82,WSW,248,3.1,3.1,41,0.00,,CLR,0.00,VWS V14.01,2013-03-17 09:19:00,
2013-03-17 05:24:00,58.3,34.7,29.82,WSW,248,3.1,3.1,41,0.00,,CLR,0.00,VWS V14.01,2013-03-17 09:24:00,
2013-03-17 05:29:00,58.1,34.5,29.82,West,270,2.9,2.9,41,0.00,,CLR,0.00,VWS V14.01,2013-03-17 09:29:00,
2013-03-17 05:34:00,58.3,34.7,29.82,West,270,2.9,2.9,41,0.00,,CLR,0.00,VWS V14.01,2013-03-17 09:34:00,
2013-03-17 05:39:00,58.3,34.7,29.82,WSW,248,3.8,3.8,41,0.00,,CLR,0.00,VWS V14.01,2013-03-17 09:39:00,
2013-03-17 05:44:00,58.1,34.5,29.82,WSW,248,2.7,2.7,41,0.00,,CLR,0.00,VWS V14.01,2013-03-17 09:44:00,
2013-03-17 05:49:00,58.1,34.5,29.82,WSW,248,3.4,3.4,41,0.00,,CLR,0.00,VWS V14.01,2013-03-17 09:49:00,
2013-03-17 05:54:00,58.1,34.5,29.82,SSW,202,3.8,3.8,41,0.00,,CLR,0.00,VWS V14.01,2013-03-17 09:54:00,
2013-03-17 05:59:00,58.6,35.0,29.82,SW,225,4.9,4.9,41,0.00,,CLR,0.00,VWS V14.01,2013-03-17 09:59:00,
2013-03-17 06:05:00,58.3,34.7,29.82,SW,225,3.8,3.8,41,0.00,,CLR,0.00,VWS V14.01,2013-03-17 10:05:00,
2013-03-17 06:10:00,58.3,34.7,29.82,WSW,248,4.7,4.7,41,0.00,,CLR,0.00,VWS V14.01,2013-03-17 10:10:00,
2013-03-17 06:15:00,57.6,34.1,29.82,West,270,4.3,4.3,41,0.00,,CLR,0.00,VWS V14.01,2013-03-17 10:15:00,
2013-03-17 06:20:00,57.7,34.2,29.82,WSW,248,3.1,3.1,41,0.00,,CLR,0.00,VWS V14.01,2013-03-17 10:20:00,
2013-03-17 06:25:00,57.9,34.4,29.82,WNW,292,3.8,3.8,41,0.00,,CLR,0.00,VWS V14.01,2013-03-17 10:25:00,
2013-03-17 06:30:00,57.4,33.9,29.82,West,270,3.1,3.1,41,0.00,,CLR,0.00,VWS V14.01,2013-03-17 10:30:00,
2013-03-17 06:35:00,56.7,33.2,29.85,West,270,4.0,4.0,41,0.00,,CLR,0.00,VWS V14.01,2013-03-17 10:35:00,
2013-03-17 06:40:00,56.7,33.2,29.85,WSW,248,3.6,3.6,41,0.00,,CLR,0.00,VWS V14.01,2013-03-17 10:40:00,
2013-03-17 06:45:00,57.2,33.7,29.85,WSW,248,4.0,4.0,41,0.00,,CLR,0.00,VWS V14.01,2013-03-17 10:45:00,
2013-03-17 06:50:00,56.5,33.1,29.82,West,270,3.4,3.4,41,0.00,,CLR,0.00,VWS V14.01,2013-03-17 10:50:00,
2013-03-17 06:55:00,56.8,33.4,29.82,West,270,4.0,4.0,41,0.00,,CLR,0.00,VWS V14.01,2013-03-17 10:55:00,
2013-03-17 07:00:00,56.7,33.2,29.82,West,270,4.3,4.3,41,0.00,,CLR,0.00,VWS V14.01,2013-03-17 11:00:00,
2013-03-17 07:05:00,55.9,32.6,29.85,West,270,2.7,2.7,41,0.00,,CLR,0.00,VWS V14.01,2013-03-17 11:05:00,
2013-03-17 07:10:00,55.4,32.1,29.85,West,270,3.6,3.6,41,0.00,,CLR,0.00,VWS V14.01,2013-03-17 11:10:00,
2013-03-17 07:16:00,55.4,32.1,29.85,WSW,248,2.7,2.7,41,0.00,,CLR,0.00,VWS V14.01,2013-03-17 11:16:00,
2013-03-17 07:21:00,55.8,32.4,29.85,West,270,4.3,4.3,41,0.00,,CLR,0.00,VWS V14.01,2013-03-17 11:21:00,
2013-03-17 07:26:00,55.2,32.5,29.85,West,270,2.5,2.5,42,0.00,,CLR,0.00,VWS V14.01,2013-03-17 11:26:00,
2013-03-17 07:31:00,55.0,32.4,29.85,West,270,2.5,2.5,42,0.00,,CLR,0.00,VWS V14.01,2013-03-17 11:31:00,
2013-03-17 07:36:00,55.6,32.3,29.85,SW,225,2.5,2.5,41,0.00,,CLR,0.00,VWS V14.01,2013-03-17 11:36:00,
2013-03-17 07:41:00,55.6,32.3,29.85,SW,225,3.1,3.1,41,0.00,,CLR,0.00,VWS V14.01,2013-03-17 11:41:00,
2013-03-17 07:46:00,55.4,32.1,29.85,SW,225,3.4,3.4,41,0.00,,CLR,0.00,VWS V14.01,2013-03-17 11:46:00,
2013-03-17 07:51:00,56.1,32.8,29.85,WSW,248,4.0,4.0,41,0.00,,CLR,0.00,VWS V14.01,2013-03-17 11:51:00,
2013-03-17 07:57:00,56.3,32.9,29.85,WSW,248,3.1,3.1,41,0.00,,CLR,0.00,VWS V14.01,2013-03-17 11:57:00,
2013-03-17 08:02:00,56.3,32.9,29.85,SSW,202,3.8,3.8,41,0.00,,CLR,0.00,VWS V14.01,2013-03-17 12:02:00,
2013-03-17 08:07:00,55.9,32.6,29.85,WSW,248,3.4,3.4,41,0.00,,CLR,0.00,VWS V14.01,2013-03-17 12:07:00,
2013-03-17 08:12:00,56.7,33.2,29.85,WSW,248,4.3,4.3,41,0.00,,CLR,0.00,VWS V14.01,2013-03-17 12:12:00,
2013-03-17 08:17:00,56.7,33.2,29.85,SSW,202,6.0,6.0,41,0.00,,CLR,0.00,VWS V14.01,2013-03-17 12:17:00,
2013-03-17 08:22:00,56.8,33.4,29.85,WSW,248,9.6,9.6,41,0.00,,CLR,0.00,VWS V14.01,2013-03-17 12:22:00,
2013-03-17 08:27:00,57.2,33.7,29.85,WSW,248,4.7,4.7,41,0.00,,CLR,0.00,VWS V14.01,2013-03-17 12:27:00,
2013-03-17 08:32:00,57.6,34.1,29.85,SW,225,5.6,5.6,41,0.00,,CLR,0.00,VWS V14.01,2013-03-17 12:32:00,
2013-03-17 08:37:00,57.9,34.4,29.85,WSW,248,6.3,6.3,41,0.00,,CLR,0.00,VWS V14.01,2013-03-17 12:37:00,
2013-03-17 08:42:00,58.3,34.7,29.85,WSW,248,5.6,5.6,41,0.00,,CLR,0.00,VWS V14.01,2013-03-17 12:42:00,
2013-03-17 08:47:00,58.5,34.9,29.85,WSW,248,6.0,6.0,41,0.00,,CLR,0.00,VWS V14.01,2013-03-17 12:47:00,
2013-03-17 08:52:00,58.5,34.9,29.85,WSW,248,6.5,6.5,41,0.00,,CLR,0.00,VWS V14.01,2013-03-17 12:52:00,
2013-03-17 08:58:00,58.5,34.9,29.85,SSW,202,5.8,5.8,41,0.00,,CLR,0.00,VWS V14.01,2013-03-17 12:58:00,
2013-03-17 09:03:00,58.3,34.7,29.85,West,270,6.9,6.9,41,0.00,,CLR,0.00,VWS V14.01,2013-03-17 13:03:00,
2013-03-17 09:08:00,58.3,34.7,29.85,WSW,248,5.8,5.8,41,0.00,,CLR,0.00,VWS V14.01,2013-03-17 13:08:00,
2013-03-17 09:13:00,58.3,34.7,29.85,WSW,248,6.3,6.3,41,0.00,,CLR,0.00,VWS V14.01,2013-03-17 13:13:00,
2013-03-17 09:18:00,58.3,34.7,29.85,WSW,248,8.5,8.5,41,0.00,,CLR,0.00,VWS V14.01,2013-03-17 13:18:00,
2013-03-17 09:23:00,58.5,34.9,29.85,WSW,248,6.5,6.5,41,0.00,,CLR,0.00,VWS V14.01,2013-03-17 13:23:00,
2013-03-17 09:28:00,58.6,35.0,29.85,West,270,5.6,5.6,41,0.00,,CLR,0.00,VWS V14.01,2013-03-17 13:28:00,
2013-03-17 09:33:00,58.8,35.2,29.85,SW,225,6.0,6.0,41,0.00,,CLR,0.00,VWS V14.01,2013-03-17 13:33:00,
2013-03-17 09:38:00,59.0,35.3,29.88,WSW,248,5.6,5.6,41,0.00,,CLR,0.00,VWS V14.01,2013-03-17 13:38:00,
2013-03-17 09:43:00,59.2,35.5,29.88,West,270,6.3,6.3,41,0.00,,CLR,0.00,VWS V14.01,2013-03-17 13:43:00,
2013-03-17 09:48:00,59.7,36.0,29.88,West,270,5.4,5.4,41,0.00,,CLR,0.00,VWS V14.01,2013-03-17 13:48:00,
2013-03-17 09:53:00,59.9,36.2,29.85,SSW,202,7.4,7.4,41,0.00,,CLR,0.00,VWS V14.01,2013-03-17 13:53:00,
2013-03-17 09:58:00,60.1,36.3,29.85,WSW,248,5.4,5.4,41,0.00,,CLR,0.00,VWS V14.01,2013-03-17 13:58:00,
2013-03-17 10:03:00,60.4,36.7,29.85,West,270,7.2,7.2,41,0.00,,CLR,0.00,VWS V14.01,2013-03-17 14:03:00,
2013-03-17 10:08:00,61.0,36.5,29.85,West,270,10.5,10.5,40,0.00,,CLR,0.00,VWS V14.01,2013-03-17 14:08:00,
2013-03-17 10:13:00,61.0,36.5,29.85,WSW,248,10.7,10.7,40,0.00,,CLR,0.00,VWS V14.01,2013-03-17 14:13:00,
2013-03-17 10:18:00,62.4,37.8,29.85,SW,225,4.9,4.9,40,0.00,,CLR,0.00,VWS V14.01,2013-03-17 14:18:00,
2013-03-17 10:23:00,61.9,37.3,29.88,WSW,248,6.7,6.7,40,0.00,,CLR,0.00,VWS V14.01,2013-03-17 14:23:00,
2013-03-17 10:28:00,62.8,38.1,29.88,SW,225,6.5,6.5,40,0.00,,CLR,0.00,VWS V14.01,2013-03-17 14:28:00,
2013-03-17 10:33:00,63.0,38.3,29.88,WSW,248,7.8,7.8,40,0.00,,CLR,0.00,VWS V14.01,2013-03-17 14:33:00,
2013-03-17 10:38:00,63.3,38.6,29.88,WSW,248,8.7,8.7,40,0.00,,CLR,0.00,VWS V14.01,2013-03-17 14:38:00,
2013-03-17 10:43:00,64.2,39.4,29.88,WSW,248,4.7,4.7,40,0.00,,CLR,0.00,VWS V14.01,2013-03-17 14:43:00,
2013-03-17 10:48:00,64.2,39.4,29.88,West,270,9.8,9.8,40,0.00,,CLR,0.00,VWS V14.01,2013-03-17 14:48:00,
2013-03-17 10:53:00,65.1,39.6,29.85,WSW,248,3.1,3.1,39,0.00,,CLR,0.00,VWS V14.01,2013-03-17 14:53:00,
2013-03-17 10:58:00,65.1,39.6,29.85,SSW,202,11.0,11.0,39,0.00,,CLR,0.00,VWS V14.01,2013-03-17 14:58:00,
2013-03-17 11:03:00,65.5,39.9,29.85,West,270,7.4,7.4,39,0.00,,CLR,0.00,VWS V14.01,2013-03-17 15:03:00,
2013-03-17 11:08:00,66.0,40.4,29.88,WSW,248,7.6,7.6,39,0.00,,CLR,0.00,VWS V14.01,2013-03-17 15:08:00,
2013-03-17 11:13:00,66.0,40.4,29.88,South,180,6.3,6.3,39,0.00,,CLR,0.00,VWS V14.01,2013-03-17 15:13:00,
2013-03-17 11:18:00,66.9,41.2,29.88,West,270,9.2,9.2,39,0.00,,CLR,0.00,VWS V14.01,2013-03-17 15:18:00,
2013-03-17 11:23:00,68.0,42.1,29.88,WSW,248,3.8,3.8,39,0.00,,CLR,0.00,VWS V14.01,2013-03-17 15:23:00,
2013-03-17 11:28:00,68.2,42.3,29.88,West,270,5.8,5.8,39,0.00,,CLR,0.00,VWS V14.01,2013-03-17 15:28:00,
2013-03-17 11:34:00,68.0,42.1,29.88,WSW,248,6.5,6.5,39,0.00,,CLR,0.00,VWS V14.01,2013-03-17 15:34:00,
2013-03-17 11:39:00,68.9,43.0,29.88,SW,225,4.3,4.3,39,0.00,,CLR,0.00,VWS V14.01,2013-03-17 15:39:00,
2013-03-17 11:44:00,68.4,42.5,29.88,WNW,292,5.6,5.6,39,0.00,,CLR,0.00,VWS V14.01,2013-03-17 15:44:00,
2013-03-17 11:49:00,69.3,43.3,29.85,SW,225,5.8,5.8,39,0.00,,CLR,0.00,VWS V14.01,2013-03-17 15:49:00,
2013-03-17 11:54:00,69.4,43.4,29.85,WSW,248,8.5,8.5,39,0.00,,CLR,0.00,VWS V14.01,2013-03-17 15:54:00,
2013-03-17 11:59:00,69.4,43.4,29.85,West,270,11.0,11.0,39,0.00,,CLR,0.00,VWS V14.01,2013-03-17 15:59:00,
2013-03-17 12:04:00,69.4,43.4,29.85,SW,225,6.5,6.5,39,0.00,,CLR,0.00,VWS V14.01,2013-03-17 16:04:00,
2013-03-17 12:09:00,70.9,44.0,29.85,WSW,248,7.8,7.8,38,0.00,,CLR,0.00,VWS V14.01,2013-03-17 16:09:00,
2013-03-17 12:14:00,71.2,44.4,29.85,West,270,6.3,6.3,38,0.00,,CLR,0.00,VWS V14.01,2013-03-17 16:14:00,
2013-03-17 12:19:00,70.9,44.0,29.85,SW,225,5.4,5.4,38,0.00,,CLR,0.00,VWS V14.01,2013-03-17 16:19:00,
2013-03-17 12:24:00,72.5,45.5,29.85,SSW,202,5.4,5.4,38,0.00,,CLR,0.00,VWS V14.01,2013-03-17 16:24:00,
2013-03-17 12:29:00,71.8,44.8,29.85,West,270,5.6,5.6,38,0.00,,CLR,0.00,VWS V14.01,2013-03-17 16:29:00,
2013-03-17 12:34:00,72.3,45.3,29.85,West,270,8.5,8.5,38,0.00,,CLR,0.00,VWS V14.01,2013-03-17 16:34:00,
2013-03-17 12:39:00,72.3,45.3,29.85,SSW,202,5.6,5.6,38,0.00,,CLR,0.00,VWS V14.01,2013-03-17 16:39:00,
2013-03-17 12:45:00,73.6,45.7,29.85,WSW,248,7.4,7.4,37,0.00,,CLR,0.00,VWS V14.01,2013-03-17 16:45:00,
2013-03-17 12:50:00,72.5,45.5,29.85,SSW,202,8.1,8.1,38,0.00,,CLR,0.00,VWS V14.01,2013-03-17 16:50:00,
2013-03-17 12:55:00,72.9,45.8,29.85,WNW,292,7.2,7.2,38,0.00,,CLR,0.00,VWS V14.01,2013-03-17 16:55:00,
2013-03-17 13:00:00,73.4,45.6,29.85,WNW,292,3.8,3.8,37,0.00,,CLR,0.00,VWS V14.01,2013-03-17 17:00:00,
2013-03-17 13:05:00,73.4,45.6,29.85,West,270,2.9,2.9,37,0.00,,CLR,0.00,VWS V14.01,2013-03-17 17:05:00,
2013-03-17 13:10:00,73.2,46.1,29.85,West,270,6.5,6.5,38,0.00,,CLR,0.00,VWS V14.01,2013-03-17 17:10:00,
2013-03-17 13:15:00,73.8,45.9,29.85,West,270,3.6,3.6,37,0.00,,CLR,0.00,VWS V14.01,2013-03-17 17:15:00,
2013-03-17 13:20:00,74.5,46.5,29.85,WSW,248,6.3,6.3,37,0.00,,CLR,0.00,VWS V14.01,2013-03-17 17:20:00,
2013-03-17 13:25:00,73.6,45.7,29.85,West,270,7.4,7.4,37,0.00,,CLR,0.00,VWS V14.01,2013-03-17 17:25:00,
2013-03-17 13:30:00,74.1,46.2,29.85,WNW,292,4.0,4.0,37,0.00,,CLR,0.00,VWS V14.01,2013-03-17 17:30:00,
2013-03-17 13:35:00,74.1,46.2,29.85,SSW,202,9.4,9.4,37,0.00,,CLR,0.00,VWS V14.01,2013-03-17 17:35:00,
2013-03-17 13:40:00,75.2,47.2,29.85,West,270,8.1,8.1,37,0.00,,CLR,0.00,VWS V14.01,2013-03-17 17:40:00,
2013-03-17 13:45:00,74.5,46.5,29.85,WSW,248,0.9,0.9,37,0.00,,CLR,0.00,VWS V14.01,2013-03-17 17:45:00,
2013-03-17 13:50:00,74.1,46.2,29.85,WSW,248,3.4,3.4,37,0.00,,CLR,0.00,VWS V14.01,2013-03-17 17:50:00,
2013-03-17 13:55:00,74.7,46.7,29.85,WSW,248,3.8,3.8,37,0.00,,CLR,0.00,VWS V14.01,2013-03-17 17:55:00,
2013-03-17 14:00:00,75.0,47.0,29.85,ESE,112,0.0,0.0,37,0.00,,CLR,0.00,VWS V14.01,2013-03-17 18:00:00,
2013-03-17 14:06:00,75.9,47.8,29.82,South,180,8.1,8.1,37,0.00,,CLR,0.00,VWS V14.01,2013-03-17 18:06:00,
2013-03-17 14:11:00,75.4,47.3,29.82,SSE,158,4.0,4.0,37,0.00,,CLR,0.00,VWS V14.01,2013-03-17 18:11:00,
2013-03-17 14:15:00,74.8,46.8,29.82,SSW,202,8.5,8.5,37,0.00,,CLR,0.00,VWS V14.01,2013-03-17 18:15:00,
2013-03-17 14:21:00,74.8,46.8,29.82,SW,225,2.9,2.9,37,0.00,,CLR,0.00,VWS V14.01,2013-03-17 18:21:00,
2013-03-17 14:26:00,74.5,46.5,29.82,SW,225,7.4,7.4,37,0.00,,CLR,0.00,VWS V14.01,2013-03-17 18:26:00,
2013-03-17 14:31:00,74.8,46.8,29.82,SSW,202,4.7,4.7,37,0.00,,CLR,0.00,VWS V14.01,2013-03-17 18:31:00,
2013-03-17 14:36:00,74.7,46.7,29.82,SW,225,4.3,4.3,37,0.00,,CLR,0.00,VWS V14.01,2013-03-17 18:36:00,
2013-03-17 14:41:00,75.2,47.2,29.82,SW,225,7.4,7.4,37,0.00,,CLR,0.00,VWS V14.01,2013-03-17 18:41:00,
2013-03-17 14:46:00,74.3,46.4,29.82,SSW,202,6.5,6.5,37,0.00,,CLR,0.00,VWS V14.01,2013-03-17 18:46:00,
2013-03-17 14:51:00,74.3,46.4,29.79,SSW,202,6.0,6.0,37,0.00,,CLR,0.00,VWS V14.01,2013-03-17 18:51:00,
2013-03-17 14:56:00,73.8,45.9,29.79,SW,225,5.8,5.8,37,0.00,,CLR,0.00,VWS V14.01,2013-03-17 18:56:00,
2013-03-17 15:01:00,74.3,46.4,29.79,SSW,202,4.9,4.9,37,0.00,,CLR,0.00,VWS V14.01,2013-03-17 19:01:00,
2013-03-17 15:06:00,74.7,46.7,29.82,SSW,202,4.9,4.9,37,0.00,,CLR,0.00,VWS V14.01,2013-03-17 19:06:00,
2013-03-17 15:12:00,74.7,46.7,29.82,SSW,202,4.9,4.9,37,0.00,,CLR,0.00,VWS V14.01,2013-03-17 19:12:00,
2013-03-17 15:17:00,74.5,46.5,29.82,SSW,202,5.4,5.4,37,0.00,,CLR,0.00,VWS V14.01,2013-03-17 19:17:00,
2013-03-17 15:22:00,74.5,46.5,29.79,SSW,202,3.1,3.1,37,0.00,,CLR,0.00,VWS V14.01,2013-03-17 19:22:00,
2013-03-17 15:27:00,74.1,46.2,29.79,WSW,248,6.0,6.0,37,0.00,,CLR,0.00,VWS V14.01,2013-03-17 19:27:00,
2013-03-17 15:32:00,74.5,46.5,29.79,SSW,202,7.2,7.2,37,0.00,,CLR,0.00,VWS V14.01,2013-03-17 19:32:00,
2013-03-17 15:37:00,74.8,46.8,29.79,SSW,202,6.0,6.0,37,0.00,,BKN085,0.00,VWS V14.01,2013-03-17 19:37:00,
2013-03-17 15:42:00,73.6,45.7,29.79,SW,225,4.9,4.9,37,0.00,,BKN085,0.00,VWS V14.01,2013-03-17 19:42:00,
2013-03-17 15:47:00,73.8,45.9,29.79,SW,225,2.9,2.9,37,0.00,,BKN085,0.00,VWS V14.01,2013-03-17 19:47:00,
2013-03-17 15:52:00,73.9,46.0,29.79,SSW,202,9.8,9.8,37,0.00,,BKN085,0.00,VWS V14.01,2013-03-17 19:52:00,
2013-03-17 15:58:00,74.1,46.2,29.79,SSE,158,7.6,7.6,37,0.00,,BKN085,0.00,VWS V14.01,2013-03-17 19:58:00,
2013-03-17 16:03:00,73.9,46.0,29.79,SSW,202,6.5,6.5,37,0.00,,BKN085,0.00,VWS V14.01,2013-03-17 20:03:00,
2013-03-17 16:08:00,73.9,46.0,29.79,SW,225,5.4,5.4,37,0.00,,BKN085,0.00,VWS V14.01,2013-03-17 20:08:00,
2013-03-17 16:13:00,73.9,46.0,29.79,SW,225,7.2,7.2,37,0.00,,BKN085,0.00,VWS V14.01,2013-03-17 20:13:00,
2013-03-17 16:18:00,74.7,46.7,29.79,SW,225,6.0,6.0,37,0.00,,BKN085,0.00,VWS V14.01,2013-03-17 20:18:00,
2013-03-17 16:23:00,74.8,46.8,29.79,West,270,6.0,6.0,37,0.00,,BKN085,0.00,VWS V14.01,2013-03-17 20:23:00,
2013-03-17 16:28:00,75.4,47.3,29.79,SW,225,7.8,7.8,37,0.00,,BKN085,0.00,VWS V14.01,2013-03-17 20:28:00,
2013-03-17 16:33:00,74.5,46.5,29.79,SW,225,4.3,4.3,37,0.00,,BKN085,0.00,VWS V14.01,2013-03-17 20:33:00,
2013-03-17 16:38:00,74.3,46.4,29.79,SW,225,7.8,7.8,37,0.00,,SCT070,0.00,VWS V14.01,2013-03-17 20:38:00,
2013-03-17 16:43:00,74.3,46.4,29.79,SW,225,9.8,9.8,37,0.00,,SCT070,0.00,VWS V14.01,2013-03-17 20:43:00,
2013-03-17 16:48:00,74.7,46.7,29.79,SSW,202,6.9,6.9,37,0.00,,SCT070,0.00,VWS V14.01,2013-03-17 20:48:00,
2013-03-17 16:53:00,74.7,46.7,29.79,SSW,202,3.8,3.8,37,0.00,,SCT070,0.00,VWS V14.01,2013-03-17 20:53:00,
2013-03-17 16:59:00,74.3,46.4,29.79,SSW,202,6.7,6.7,37,0.00,,SCT070,0.00,VWS V14.01,2013-03-17 20:59:00,
2013-03-17 17:04:00,74.1,46.2,29.79,WSW,248,7.8,7.8,37,0.00,,SCT070,0.00,VWS V14.01,2013-03-17 21:04:00,
2013-03-17 17:09:00,74.3,46.4,29.79,SSW,202,7.2,7.2,37,0.00,,SCT070,0.00,VWS V14.01,2013-03-17 21:09:00,
2013-03-17 17:14:00,74.5,46.5,29.79,South,180,3.6,3.6,37,0.00,,SCT070,0.00,VWS V14.01,2013-03-17 21:14:00,
2013-03-17 17:18:00,74.1,46.2,29.82,SW,225,11.0,11.0,37,0.00,,SCT070,0.00,VWS V14.01,2013-03-17 21:18:00,
2013-03-17 17:24:00,73.8,45.9,29.82,SW,225,7.6,7.6,37,0.00,,SCT070,0.00,VWS V14.01,2013-03-17 21:24:00,
2013-03-17 17:28:00,74.1,46.2,29.82,WSW,248,5.4,5.4,37,0.00,,SCT070,0.00,VWS V14.01,2013-03-17 21:28:00,
2013-03-17 17:34:00,73.8,45.9,29.82,West,270,5.4,5.4,37,0.00,,SCT070,0.00,VWS V14.01,2013-03-17 21:34:00,
2013-03-17 17:39:00,71.8,44.8,29.82,NW,315,3.1,3.1,38,0.00,,BKN075,0.00,VWS V14.01,2013-03-17 21:39:00,
2013-03-17 17:44:00,71.4,44.5,29.82,NE,45,5.6,5.6,38,0.00,,BKN075,0.00,VWS V14.01,2013-03-17 21:44:00,
2013-03-17 17:48:00,70.3,43.5,29.82,NNW,338,0.9,0.9,38,0.00,,BKN075,0.00,VWS V14.01,2013-03-17 21:48:00,
2013-03-17 17:54:00,69.6,43.6,29.82,NE,45,7.4,7.4,39,0.00,,BKN075,0.00,VWS V14.01,2013-03-17 21:54:00,
2013-03-17 17:59:00,68.7,42.8,29.82,ESE,112,3.6,3.6,39,0.00,,BKN075,0.00,VWS V14.01,2013-03-17 21:59:00,
2013-03-17 18:04:00,68.2,42.3,29.82,NNE,22,4.0,4.0,39,0.00,,BKN075,0.00,VWS V14.01,2013-03-17 22:04:00,
2013-03-17 18:09:00,67.5,41.7,29.82,NNE,22,6.5,6.5,39,0.00,,BKN075,0.00,VWS V14.01,2013-03-17 22:09:00,
2013-03-17 18:14:00,67.1,41.3,29.82,NNE,22,8.7,8.7,39,0.00,,BKN075,0.00,VWS V14.01,2013-03-17 22:14:00,
2013-03-17 18:19:00,66.6,40.9,29.82,ENE,68,9.2,9.2,39,0.00,,BKN075,0.00,VWS V14.01,2013-03-17 22:19:00,
2013-03-17 18:24:00,66.2,40.5,29.82,ENE,68,6.0,6.0,39,0.00,,BKN075,0.00,VWS V14.01,2013-03-17 22:24:00,
2013-03-17 18:29:00,66.0,40.4,29.82,NE,45,7.4,7.4,39,0.00,,BKN075,0.00,VWS V14.01,2013-03-17 22:29:00,
2013-03-17 18:34:00,65.7,40.0,29.85,NNE,22,10.3,10.3,39,0.00,,BKN075,0.00,VWS V14.01,2013-03-17 22:34:00,
2013-03-17 18:39:00,65.5,39.9,29.85,NE,45,5.4,5.4,39,0.00,,BKN090,0.00,VWS V14.01,2013-03-17 22:39:00,
2013-03-17 18:44:00,65.1,39.6,29.85,ENE,68,7.8,7.8,39,0.00,,BKN090,0.00,VWS V14.01,2013-03-17 22:44:00,
2013-03-17 18:49:00,64.8,39.2,29.85,NE,45,6.5,6.5,39,0.00,,BKN090,0.00,VWS V14.01,2013-03-17 22:49:00,
2013-03-17 18:54:00,64.4,38.9,29.85,NE,45,5.6,5.6,39,0.00,,BKN090,0.00,VWS V14.01,2013-03-17 22:54:00,
2013-03-17 19:00:00,64.2,39.4,29.85,ENE,68,8.1,8.1,40,0.00,,BKN090,0.00,VWS V14.01,2013-03-17 23:00:00,
2013-03-17 19:05:00,64.0,39.2,29.85,ENE,68,5.4,5.4,40,0.00,,BKN090,0.00,VWS V14.01,2013-03-17 23:05:00,
2013-03-17 19:10:00,63.9,39.1,29.85,ENE,68,12.3,12.3,40,0.00,,BKN090,0.00,VWS V14.01,2013-03-17 23:10:00,
2013-03-17 19:15:00,63.7,38.9,29.85,ENE,68,12.3,12.3,40,0.00,,BKN090,0.00,VWS V14.01,2013-03-17 23:15:00,
2013-03-17 19:20:00,63.3,38.6,29.82,ENE,68,12.1,12.1,40,0.00,,BKN090,0.00,VWS V14.01,2013-03-17 23:20:00,
2013-03-17 19:25:00,63.0,38.3,29.82,ENE,68,8.7,8.7,40,0.00,,BKN090,0.00,VWS V14.01,2013-03-17 23:25:00,
2013-03-17 19:30:00,62.8,38.1,29.82,ENE,68,7.6,7.6,40,0.00,,BKN090,0.00,VWS V14.01,2013-03-17 23:30:00,
2013-03-17 19:35:00,62.4,37.8,29.85,NE,45,10.1,10.1,40,0.00,,BKN090,0.00,VWS V14.01,2013-03-17 23:35:00,
2013-03-17 19:40:00,62.2,37.6,29.85,ENE,68,10.7,10.7,40,0.00,,FEW070,0.00,VWS V14.01,2013-03-17 23:40:00,
2013-03-17 19:45:00,61.9,37.3,29.85,ENE,68,7.6,7.6,40,0.00,,FEW070,0.00,VWS V14.01,2013-03-17 23:45:00,
2013-03-17 19:50:00,61.7,37.2,29.85,ENE,68,12.3,12.3,40,0.00,,FEW070,0.00,VWS V14.01,2013-03-17 23:50:00,
2013-03-17 19:55:00,61.3,36.8,29.85,ENE,68,10.3,10.3,40,0.00,,FEW070,0.00,VWS V14.01,2013-03-17 23:55:00,
2013-03-17 20:00:00,61.0,36.5,29.85,NE,45,5.4,5.4,40,0.00,,FEW070,0.00,VWS V14.01,2013-03-18 00:00:00,
2013-03-17 20:05:00,60.8,36.3,29.88,NE,45,8.7,8.7,40,0.00,,FEW070,0.00,VWS V14.01,2013-03-18 00:05:00,
2013-03-17 20:10:00,60.4,36.7,29.88,NE,45,7.8,7.8,41,0.00,,CLR,0.00,VWS V14.01,2013-03-18 00:10:00,
2013-03-17 20:15:00,60.3,36.5,29.88,ENE,68,8.5,8.5,41,0.00,,CLR,0.00,VWS V14.01,2013-03-18 00:15:00,
2013-03-17 20:20:00,59.9,36.2,29.91,ENE,68,11.0,11.0,41,0.00,,CLR,0.00,VWS V14.01,2013-03-18 00:20:00,
2013-03-17 20:25:00,59.5,35.8,29.91,ENE,68,13.2,13.2,41,0.00,,CLR,0.00,VWS V14.01,2013-03-18 00:25:00,
2013-03-17 20:31:00,59.0,35.3,29.91,ENE,68,14.8,14.8,41,0.00,,CLR,0.00,VWS V14.01,2013-03-18 00:31:00,
2013-03-17 20:35:00,58.8,35.2,29.91,East,90,9.2,9.2,41,0.00,,CLR,0.00,VWS V14.01,2013-03-18 00:35:00,
2013-03-17 20:41:00,58.5,34.9,29.91,NE,45,13.2,13.2,41,0.00,,CLR,0.00,VWS V14.01,2013-03-18 00:41:00,
2013-03-17 20:46:00,58.1,34.5,29.91,ENE,68,5.4,5.4,41,0.00,,CLR,0.00,VWS V14.01,2013-03-18 00:46:00,
2013-03-17 20:51:00,57.9,34.4,29.94,ENE,68,9.2,9.2,41,0.00,,CLR,0.00,VWS V14.01,2013-03-18 00:51:00,
2013-03-17 20:56:00,57.6,34.1,29.94,NE,45,7.4,7.4,41,0.00,,CLR,0.00,VWS V14.01,2013-03-18 00:56:00,
2013-03-17 21:01:00,57.6,34.1,29.94,NE,45,12.1,12.1,41,0.00,,CLR,0.00,VWS V14.01,2013-03-18 01:01:00,
2013-03-17 21:06:00,57.2,33.7,29.94,NE,45,9.6,9.6,41,0.00,,CLR,0.00,VWS V14.01,2013-03-18 01:06:00,
2013-03-17 21:11:00,56.5,33.1,29.94,East,90,7.6,7.6,41,0.00,,CLR,0.00,VWS V14.01,2013-03-18 01:11:00,
2013-03-17 21:16:00,56.1,32.8,29.94,NE,45,7.6,7.6,41,0.00,,CLR,0.00,VWS V14.01,2013-03-18 01:16:00,
2013-03-17 21:22:00,55.2,32.5,29.94,NNE,22,9.8,9.8,42,0.00,,CLR,0.00,VWS V14.01,2013-03-18 01:22:00,
2013-03-17 21:27:00,54.5,31.9,29.94,NE,45,9.8,9.8,42,0.00,,CLR,0.00,VWS V14.01,2013-03-18 01:27:00,
2013-03-17 21:32:00,53.8,31.2,29.94,ENE,68,11.0,11.0,42,0.00,,SCT060,0.00,VWS V14.01,2013-03-18 01:32:00,
2013-03-17 21:37:00,53.2,30.8,29.97,East,90,12.5,12.5,42,0.00,,SCT060,0.00,VWS V14.01,2013-03-18 01:37:00,
2013-03-17 21:42:00,53.1,30.6,29.97,NE,45,4.9,4.9,42,0.00,,SCT060,0.00,VWS V14.01,2013-03-18 01:42:00,
2013-03-17 21:47:00,52.7,30.3,29.97,ENE,68,7.8,7.8,42,0.00,,SCT060,0.00,VWS V14.01,2013-03-18 01:47:00,
2013-03-17 21:52:00,52.2,29.8,29.97,NE,45,9.8,9.8,42,0.00,,SCT060,0.00,VWS V14.01,2013-03-18 01:52:00,
2013-03-17 21:57:00,51.6,29.9,29.97,NE,45,7.4,7.4,43,0.00,,SCT060,0.00,VWS V14.01,2013-03-18 01:57:00,
2013-03-17 22:02:00,51.3,29.5,29.97,NNE,22,8.1,8.1,43,0.00,,SCT060,0.00,VWS V14.01,2013-03-18 02:02:00,
2013-03-17 22:07:00,50.7,29.1,29.97,ENE,68,12.5,12.5,43,0.00,,SCT060,0.00,VWS V14.01,2013-03-18 02:07:00,
2013-03-17 22:12:00,50.4,28.7,29.97,NE,45,5.8,5.8,43,0.00,,SCT060,0.00,VWS V14.01,2013-03-18 02:12:00,
2013-03-17 22:17:00,50.2,28.6,29.97,NE,45,10.7,10.7,43,0.00,,SCT060,0.00,VWS V14.01,2013-03-18 02:17:00,
2013-03-17 22:22:00,50.0,28.4,29.97,ENE,68,8.7,8.7,43,0.00,,SCT060,0.00,VWS V14.01,2013-03-18 02:22:00,
2013-03-17 22:27:00,49.6,28.1,29.97,NE,45,7.6,7.6,43,0.00,,SCT060,0.00,VWS V14.01,2013-03-18 02:27:00,
2013-03-17 22:32:00,49.5,27.9,29.97,NE,45,6.5,6.5,43,0.00,,SCT060,0.00,VWS V14.01,2013-03-18 02:32:00,
2013-03-17 22:37:00,49.3,27.8,29.97,NNE,22,9.2,9.2,43,0.00,,FEW055,0.00,VWS V14.01,2013-03-18 02:37:00,
2013-03-17 22:42:00,49.1,27.6,29.97,NNE,22,10.7,10.7,43,0.00,,FEW055,0.00,VWS V14.01,2013-03-18 02:42:00,
2013-03-17 22:47:00,48.9,27.4,29.97,ENE,68,10.1,10.1,43,0.00,,FEW055,0.00,VWS V14.01,2013-03-18 02:47:00,
2013-03-17 22:52:00,48.9,27.4,29.97,NE,45,7.8,7.8,43,0.00,,FEW055,0.00,VWS V14.01,2013-03-18 02:52:00,
2013-03-17 22:58:00,48.7,27.3,29.97,ENE,68,9.8,9.8,43,0.00,,FEW055,0.00,VWS V14.01,2013-03-18 02:58:00,
2013-03-17 23:03:00,48.7,27.3,29.97,NE,45,9.8,9.8,43,0.00,,FEW055,0.00,VWS V14.01,2013-03-18 03:03:00,
2013-03-17 23:08:00,48.4,26.9,30.00,NE,45,10.7,10.7,43,0.00,,FEW055,0.00,VWS V14.01,2013-03-18 03:08:00,
2013-03-17 23:13:00,48.2,26.8,30.00,NE,45,7.2,7.2,43,0.00,,FEW055,0.00,VWS V14.01,2013-03-18 03:13:00,
2013-03-17 23:18:00,48.0,26.6,30.00,ENE,68,6.5,6.5,43,0.00,,FEW055,0.00,VWS V14.01,2013-03-18 03:18:00,
2013-03-17 23:23:00,47.8,26.4,30.00,NE,45,13.4,13.4,43,0.00,,FEW055,0.00,VWS V14.01,2013-03-18 03:23:00,
2013-03-17 23:28:00,47.7,26.3,30.00,NE,45,9.8,9.8,43,0.00,,FEW055,0.00,VWS V14.01,2013-03-18 03:28:00,
2013-03-17 23:33:00,47.5,26.7,30.00,ENE,68,7.8,7.8,44,0.00,,FEW055,0.00,VWS V14.01,2013-03-18 03:33:00,
2013-03-17 23:38:00,47.5,28.3,29.97,NE,45,10.1,10.1,47,0.00,,CLR,0.00,VWS V14.01,2013-03-18 03:38:00,
2013-03-17 23:43:00,47.5,28.3,29.97,NE,45,15.2,15.2,47,0.00,,CLR,0.00,VWS V14.01,2013-03-18 03:43:00,
2013-03-17 23:48:00,47.3,29.1,29.97,ENE,68,7.6,7.6,49,0.00,,CLR,0.00,VWS V14.01,2013-03-18 03:48:00,
2013-03-17 23:53:00,47.3,30.6,30.00,NE,45,8.5,8.5,52,0.00,,CLR,0.00,VWS V14.01,2013-03-18 03:53:00,
2013-03-17 23:58:00,47.3,30.6,30.00,NNE,22,6.3,6.3,52,0.00,,CLR,0.00,VWS V14.01,2013-03-18 03:58:00,